sensor_id;sensor_type;location;lat;lon;timestamp;temperature;humidity
33007;DHT22;19361;51.598;7.650;2023-12-14T00:02:09;10.60;74.50
33007;DHT22;19361;51.598;7.650;2023-12-14T00:07:10;10.60;74.50
33007;DHT22;19361;51.598;7.650;2023-12-14T00:12:14;10.50;74.40
33007;DHT22;19361;51.598;7.650;2023-12-14T00:17:15;10.50;74.30
33007;DHT22;19361;51.598;7.650;2023-12-14T00:22:16;10.40;74.20
33007;DHT22;19361;51.598;7.650;2023-12-14T00:27:16;10.40;74.40
33007;DHT22;19361;51.598;7.650;2023-12-14T00:32:17;10.40;74.40
33007;DHT22;19361;51.598;7.650;2023-12-14T00:37:18;10.40;74.40
33007;DHT22;19361;51.598;7.650;2023-12-14T00:42:18;10.40;74.20
33007;DHT22;19361;51.598;7.650;2023-12-14T00:47:19;10.30;74.00
33007;DHT22;19361;51.598;7.650;2023-12-14T00:52:20;10.20;74.10
33007;DHT22;19361;51.598;7.650;2023-12-14T00:57:20;10.20;74.20
33007;DHT22;19361;51.598;7.650;2023-12-14T01:02:21;10.20;74.40
33007;DHT22;19361;51.598;7.650;2023-12-14T01:07:22;10.20;74.40
33007;DHT22;19361;51.598;7.650;2023-12-14T01:12:22;10.20;74.30
33007;DHT22;19361;51.598;7.650;2023-12-14T01:17:23;10.10;74.20
33007;DHT22;19361;51.598;7.650;2023-12-14T01:22:24;10.10;74.20
33007;DHT22;19361;51.598;7.650;2023-12-14T01:27:25;10.10;74.20
33007;DHT22;19361;51.598;7.650;2023-12-14T01:32:25;9.90;74.10
33007;DHT22;19361;51.598;7.650;2023-12-14T01:37:26;9.90;74.20
33007;DHT22;19361;51.598;7.650;2023-12-14T01:42:27;9.90;74.40
33007;DHT22;19361;51.598;7.650;2023-12-14T01:47:27;9.80;74.20
33007;DHT22;19361;51.598;7.650;2023-12-14T01:52:28;9.80;74.10
33007;DHT22;19361;51.598;7.650;2023-12-14T01:57:29;9.80;74.30
33007;DHT22;19361;51.598;7.650;2023-12-14T02:02:30;9.80;74.20
33007;DHT22;19361;51.598;7.650;2023-12-14T02:07:30;9.80;74.20
33007;DHT22;19361;51.598;7.650;2023-12-14T02:12:31;9.80;73.90
33007;DHT22;19361;51.598;7.650;2023-12-14T02:17:33;9.70;73.90
33007;DHT22;19361;51.598;7.650;2023-12-14T02:22:51;9.70;73.90
33007;DHT22;19361;51.598;7.650;2023-12-14T02:27:52;9.70;73.90
33007;DHT22;19361;51.598;7.650;2023-12-14T02:32:53;9.70;73.90
33007;DHT22;19361;51.598;7.650;2023-12-14T02:37:54;9.60;73.70
33007;DHT22;19361;51.598;7.650;2023-12-14T02:42:54;9.60;73.70
33007;DHT22;19361;51.598;7.650;2023-12-14T02:47:55;9.60;73.80
33007;DHT22;19361;51.598;7.650;2023-12-14T02:52:56;9.60;73.90
33007;DHT22;19361;51.598;7.650;2023-12-14T02:57:56;9.60;73.90
33007;DHT22;19361;51.598;7.650;2023-12-14T03:02:57;9.60;74.00
33007;DHT22;19361;51.598;7.650;2023-12-14T03:07:58;9.50;73.90
33007;DHT22;19361;51.598;7.650;2023-12-14T03:12:58;9.50;73.90
33007;DHT22;19361;51.598;7.650;2023-12-14T03:17:59;9.50;73.80
33007;DHT22;19361;51.598;7.650;2023-12-14T03:23:00;9.50;73.90
33007;DHT22;19361;51.598;7.650;2023-12-14T03:28:00;9.50;74.00
33007;DHT22;19361;51.598;7.650;2023-12-14T03:33:01;9.40;73.90
33007;DHT22;19361;51.598;7.650;2023-12-14T03:38:01;9.40;74.00
33007;DHT22;19361;51.598;7.650;2023-12-14T03:43:02;9.40;74.10
33007;DHT22;19361;51.598;7.650;2023-12-14T03:48:03;9.30;74.20
33007;DHT22;19361;51.598;7.650;2023-12-14T03:53:04;9.30;74.10
33007;DHT22;19361;51.598;7.650;2023-12-14T03:58:05;9.30;74.00
33007;DHT22;19361;51.598;7.650;2023-12-14T04:03:06;9.20;73.90
33007;DHT22;19361;51.598;7.650;2023-12-14T04:08:06;9.30;73.90
33007;DHT22;19361;51.598;7.650;2023-12-14T04:13:07;9.20;73.70
33007;DHT22;19361;51.598;7.650;2023-12-14T04:18:08;9.20;73.60
33007;DHT22;19361;51.598;7.650;2023-12-14T04:23:09;9.20;73.70
33007;DHT22;19361;51.598;7.650;2023-12-14T04:28:09;9.10;73.70
33007;DHT22;19361;51.598;7.650;2023-12-14T04:33:10;9.10;73.70
33007;DHT22;19361;51.598;7.650;2023-12-14T04:38:11;9.10;73.70
33007;DHT22;19361;51.598;7.650;2023-12-14T04:43:12;9.10;73.90
33007;DHT22;19361;51.598;7.650;2023-12-14T04:48:13;9.00;74.00
33007;DHT22;19361;51.598;7.650;2023-12-14T04:53:14;9.00;74.10
33007;DHT22;19361;51.598;7.650;2023-12-14T04:58:15;9.10;74.20
33007;DHT22;19361;51.598;7.650;2023-12-14T05:03:15;9.00;74.20
33007;DHT22;19361;51.598;7.650;2023-12-14T05:08:16;9.10;74.20
33007;DHT22;19361;51.598;7.650;2023-12-14T05:13:17;9.00;74.10
33007;DHT22;19361;51.598;7.650;2023-12-14T05:18:18;9.10;74.10
33007;DHT22;19361;51.598;7.650;2023-12-14T05:23:19;9.00;74.00
33007;DHT22;19361;51.598;7.650;2023-12-14T05:28:19;9.00;73.90
33007;DHT22;19361;51.598;7.650;2023-12-14T05:33:20;9.00;74.00
33007;DHT22;19361;51.598;7.650;2023-12-14T05:38:21;9.00;74.00
33007;DHT22;19361;51.598;7.650;2023-12-14T05:43:21;9.00;74.10
33007;DHT22;19361;51.598;7.650;2023-12-14T05:48:22;9.00;74.10
33007;DHT22;19361;51.598;7.650;2023-12-14T05:53:23;8.90;74.00
33007;DHT22;19361;51.598;7.650;2023-12-14T05:58:23;9.00;74.00
33007;DHT22;19361;51.598;7.650;2023-12-14T06:03:24;8.90;74.00
33007;DHT22;19361;51.598;7.650;2023-12-14T06:08:25;8.90;73.90
33007;DHT22;19361;51.598;7.650;2023-12-14T06:13:25;8.90;74.00
33007;DHT22;19361;51.598;7.650;2023-12-14T06:18:26;8.90;73.90
33007;DHT22;19361;51.598;7.650;2023-12-14T06:23:27;8.90;73.70
33007;DHT22;19361;51.598;7.650;2023-12-14T06:28:27;8.90;73.60
33007;DHT22;19361;51.598;7.650;2023-12-14T06:33:28;8.80;73.70
33007;DHT22;19361;51.598;7.650;2023-12-14T06:38:29;8.80;73.70
33007;DHT22;19361;51.598;7.650;2023-12-14T06:43:29;8.80;73.90
33007;DHT22;19361;51.598;7.650;2023-12-14T06:48:30;8.90;73.90
33007;DHT22;19361;51.598;7.650;2023-12-14T06:53:31;8.90;73.80
33007;DHT22;19361;51.598;7.650;2023-12-14T06:58:32;8.90;73.60
33007;DHT22;19361;51.598;7.650;2023-12-14T07:03:32;8.90;73.50
33007;DHT22;19361;51.598;7.650;2023-12-14T07:08:33;8.80;73.20
33007;DHT22;19361;51.598;7.650;2023-12-14T07:13:34;8.80;73.30
33007;DHT22;19361;51.598;7.650;2023-12-14T07:18:41;8.80;73.30
33007;DHT22;19361;51.598;7.650;2023-12-14T07:23:42;8.80;73.20
33007;DHT22;19361;51.598;7.650;2023-12-14T07:28:43;8.80;73.10
33007;DHT22;19361;51.598;7.650;2023-12-14T07:33:43;8.80;73.20
33007;DHT22;19361;51.598;7.650;2023-12-14T07:38:45;8.70;73.60
33007;DHT22;19361;51.598;7.650;2023-12-14T07:43:46;8.70;73.40
33007;DHT22;19361;51.598;7.650;2023-12-14T07:48:47;8.70;73.40
33007;DHT22;19361;51.598;7.650;2023-12-14T07:53:47;8.80;73.30
33007;DHT22;19361;51.598;7.650;2023-12-14T07:58:48;8.80;73.50
33007;DHT22;19361;51.598;7.650;2023-12-14T08:03:49;8.70;73.40
33007;DHT22;19361;51.598;7.650;2023-12-14T08:08:49;8.70;73.40
33007;DHT22;19361;51.598;7.650;2023-12-14T08:13:50;8.70;73.40
33007;DHT22;19361;51.598;7.650;2023-12-14T08:18:51;8.70;73.40
33007;DHT22;19361;51.598;7.650;2023-12-14T08:23:51;8.70;73.30
33007;DHT22;19361;51.598;7.650;2023-12-14T08:28:52;8.70;73.20
33007;DHT22;19361;51.598;7.650;2023-12-14T08:33:53;8.70;73.10
33007;DHT22;19361;51.598;7.650;2023-12-14T08:38:53;8.70;73.20
33007;DHT22;19361;51.598;7.650;2023-12-14T08:43:54;8.70;73.30
33007;DHT22;19361;51.598;7.650;2023-12-14T08:48:56;8.70;73.10
33007;DHT22;19361;51.598;7.650;2023-12-14T08:53:56;8.70;73.10
33007;DHT22;19361;51.598;7.650;2023-12-14T08:58:57;8.70;73.10
33007;DHT22;19361;51.598;7.650;2023-12-14T09:03:59;8.60;72.90
33007;DHT22;19361;51.598;7.650;2023-12-14T09:09:00;8.70;73.00
33007;DHT22;19361;51.598;7.650;2023-12-14T09:14:02;8.70;73.10
33007;DHT22;19361;51.598;7.650;2023-12-14T09:19:04;8.60;73.10
33007;DHT22;19361;51.598;7.650;2023-12-14T09:24:04;8.70;73.00
33007;DHT22;19361;51.598;7.650;2023-12-14T09:29:05;8.70;72.80
33007;DHT22;19361;51.598;7.650;2023-12-14T09:34:06;8.70;72.90
33007;DHT22;19361;51.598;7.650;2023-12-14T09:39:07;8.70;72.70
33007;DHT22;19361;51.598;7.650;2023-12-14T09:44:10;8.70;72.80
33007;DHT22;19361;51.598;7.650;2023-12-14T09:49:12;8.70;72.80
33007;DHT22;19361;51.598;7.650;2023-12-14T09:54:13;8.70;72.60
33007;DHT22;19361;51.598;7.650;2023-12-14T09:59:14;8.70;72.50
33007;DHT22;19361;51.598;7.650;2023-12-14T10:04:17;8.60;72.50
33007;DHT22;19361;51.598;7.650;2023-12-14T10:09:22;8.60;72.50
33007;DHT22;19361;51.598;7.650;2023-12-14T10:14:25;8.60;72.50
33007;DHT22;19361;51.598;7.650;2023-12-14T10:19:26;8.60;72.40
33007;DHT22;19361;51.598;7.650;2023-12-14T10:24:26;8.60;72.40
33007;DHT22;19361;51.598;7.650;2023-12-14T10:29:27;8.60;72.40
33007;DHT22;19361;51.598;7.650;2023-12-14T10:34:28;8.60;72.50
33007;DHT22;19361;51.598;7.650;2023-12-14T10:39:29;8.60;72.40
33007;DHT22;19361;51.598;7.650;2023-12-14T10:44:34;8.70;72.30
33007;DHT22;19361;51.598;7.650;2023-12-14T10:49:37;8.70;71.90
33007;DHT22;19361;51.598;7.650;2023-12-14T10:54:38;8.70;72.10
33007;DHT22;19361;51.598;7.650;2023-12-14T10:59:42;8.70;72.10
33007;DHT22;19361;51.598;7.650;2023-12-14T11:05:02;8.70;72.20
33007;DHT22;19361;51.598;7.650;2023-12-14T11:10:09;8.80;71.70
33007;DHT22;19361;51.598;7.650;2023-12-14T11:15:11;8.80;71.90
33007;DHT22;19361;51.598;7.650;2023-12-14T11:20:24;8.80;71.80
33007;DHT22;19361;51.598;7.650;2023-12-14T11:25:25;8.80;71.50
33007;DHT22;19361;51.598;7.650;2023-12-14T11:30:26;8.80;71.70
33007;DHT22;19361;51.598;7.650;2023-12-14T11:35:27;8.80;71.40
33007;DHT22;19361;51.598;7.650;2023-12-14T11:40:28;8.80;71.40
33007;DHT22;19361;51.598;7.650;2023-12-14T11:45:29;8.80;71.40
33007;DHT22;19361;51.598;7.650;2023-12-14T11:50:30;8.80;71.50
33007;DHT22;19361;51.598;7.650;2023-12-14T11:55:32;8.90;71.60
33007;DHT22;19361;51.598;7.650;2023-12-14T12:00:35;8.90;71.30
33007;DHT22;19361;51.598;7.650;2023-12-14T12:05:47;8.90;71.30
33007;DHT22;19361;51.598;7.650;2023-12-14T12:10:49;9.00;71.10
33007;DHT22;19361;51.598;7.650;2023-12-14T12:15:50;9.00;71.30
33007;DHT22;19361;51.598;7.650;2023-12-14T12:20:51;8.90;71.00
33007;DHT22;19361;51.598;7.650;2023-12-14T12:25:53;9.00;70.40
33007;DHT22;19361;51.598;7.650;2023-12-14T12:30:55;8.90;70.50
33007;DHT22;19361;51.598;7.650;2023-12-14T12:35:56;8.90;70.50
33007;DHT22;19361;51.598;7.650;2023-12-14T12:40:57;8.80;70.60
33007;DHT22;19361;51.598;7.650;2023-12-14T12:46:00;8.80;70.70
33007;DHT22;19361;51.598;7.650;2023-12-14T12:51:01;8.80;70.60
33007;DHT22;19361;51.598;7.650;2023-12-14T12:56:01;8.80;70.80
33007;DHT22;19361;51.598;7.650;2023-12-14T13:01:02;8.80;70.80
33007;DHT22;19361;51.598;7.650;2023-12-14T13:06:03;8.80;70.90
33007;DHT22;19361;51.598;7.650;2023-12-14T13:11:04;8.80;70.70
33007;DHT22;19361;51.598;7.650;2023-12-14T13:16:05;8.80;70.80
33007;DHT22;19361;51.598;7.650;2023-12-14T13:21:06;8.80;70.80
33007;DHT22;19361;51.598;7.650;2023-12-14T13:26:07;8.80;70.90
33007;DHT22;19361;51.598;7.650;2023-12-14T13:31:07;8.80;71.10
33007;DHT22;19361;51.598;7.650;2023-12-14T13:36:08;8.80;71.50
33007;DHT22;19361;51.598;7.650;2023-12-14T13:41:09;8.90;71.10
33007;DHT22;19361;51.598;7.650;2023-12-14T13:46:10;8.90;71.10
33007;DHT22;19361;51.598;7.650;2023-12-14T13:51:11;8.90;70.80
33007;DHT22;19361;51.598;7.650;2023-12-14T13:56:11;8.90;70.70
33007;DHT22;19361;51.598;7.650;2023-12-14T14:01:12;8.90;70.80
33007;DHT22;19361;51.598;7.650;2023-12-14T14:06:13;8.90;70.80
33007;DHT22;19361;51.598;7.650;2023-12-14T14:11:14;8.90;70.80
33007;DHT22;19361;51.598;7.650;2023-12-14T14:16:15;9.00;70.70
33007;DHT22;19361;51.598;7.650;2023-12-14T14:21:16;9.00;70.50
33007;DHT22;19361;51.598;7.650;2023-12-14T14:26:16;8.90;70.30
33007;DHT22;19361;51.598;7.650;2023-12-14T14:31:17;8.90;71.00
33007;DHT22;19361;51.598;7.650;2023-12-14T14:36:17;8.90;70.50
33007;DHT22;19361;51.598;7.650;2023-12-14T14:41:20;8.90;70.40
33007;DHT22;19361;51.598;7.650;2023-12-14T14:46:21;8.90;70.40
33007;DHT22;19361;51.598;7.650;2023-12-14T14:51:21;8.90;70.50
33007;DHT22;19361;51.598;7.650;2023-12-14T14:56:22;8.80;70.50
33007;DHT22;19361;51.598;7.650;2023-12-14T15:01:23;8.90;70.50
33007;DHT22;19361;51.598;7.650;2023-12-14T15:06:23;8.80;70.50
33007;DHT22;19361;51.598;7.650;2023-12-14T15:11:24;8.80;70.50
33007;DHT22;19361;51.598;7.650;2023-12-14T15:16:25;8.80;70.40
33007;DHT22;19361;51.598;7.650;2023-12-14T15:21:26;8.80;70.50
33007;DHT22;19361;51.598;7.650;2023-12-14T15:26:27;8.80;70.40
33007;DHT22;19361;51.598;7.650;2023-12-14T15:31:31;8.80;70.40
33007;DHT22;19361;51.598;7.650;2023-12-14T15:36:33;8.80;70.40
33007;DHT22;19361;51.598;7.650;2023-12-14T15:41:37;8.70;70.30
33007;DHT22;19361;51.598;7.650;2023-12-14T15:46:37;8.70;70.40
33007;DHT22;19361;51.598;7.650;2023-12-14T15:51:41;8.70;70.30
33007;DHT22;19361;51.598;7.650;2023-12-14T15:56:42;8.70;70.20
33007;DHT22;19361;51.598;7.650;2023-12-14T16:01:42;8.60;70.50
33007;DHT22;19361;51.598;7.650;2023-12-14T16:06:43;8.70;70.20
33007;DHT22;19361;51.598;7.650;2023-12-14T16:11:44;8.60;70.70
33007;DHT22;19361;51.598;7.650;2023-12-14T16:16:45;8.60;70.50
33007;DHT22;19361;51.598;7.650;2023-12-14T16:21:46;8.70;70.30
33007;DHT22;19361;51.598;7.650;2023-12-14T16:26:46;8.60;70.90
33007;DHT22;19361;51.598;7.650;2023-12-14T16:31:49;8.60;70.40
33007;DHT22;19361;51.598;7.650;2023-12-14T16:36:50;8.60;70.40
33007;DHT22;19361;51.598;7.650;2023-12-14T16:41:50;8.70;70.50
33007;DHT22;19361;51.598;7.650;2023-12-14T16:46:51;8.60;70.50
33007;DHT22;19361;51.598;7.650;2023-12-14T16:51:52;8.60;70.60
33007;DHT22;19361;51.598;7.650;2023-12-14T16:56:52;8.60;70.80
33007;DHT22;19361;51.598;7.650;2023-12-14T17:01:53;8.70;70.70
33007;DHT22;19361;51.598;7.650;2023-12-14T17:06:54;8.60;70.70
33007;DHT22;19361;51.598;7.650;2023-12-14T17:11:55;8.60;70.60
33007;DHT22;19361;51.598;7.650;2023-12-14T17:16:55;8.60;70.60
33007;DHT22;19361;51.598;7.650;2023-12-14T17:21:56;8.60;70.60
33007;DHT22;19361;51.598;7.650;2023-12-14T17:26:57;8.60;70.60
33007;DHT22;19361;51.598;7.650;2023-12-14T17:31:58;8.60;70.60
33007;DHT22;19361;51.598;7.650;2023-12-14T17:36:59;8.60;70.60
33007;DHT22;19361;51.598;7.650;2023-12-14T17:41:59;8.60;70.60
33007;DHT22;19361;51.598;7.650;2023-12-14T17:47:00;8.50;70.70
33007;DHT22;19361;51.598;7.650;2023-12-14T17:52:01;8.60;70.70
33007;DHT22;19361;51.598;7.650;2023-12-14T17:57:01;8.60;70.60
33007;DHT22;19361;51.598;7.650;2023-12-14T18:02:02;8.60;70.70
33007;DHT22;19361;51.598;7.650;2023-12-14T18:07:03;8.50;71.10
33007;DHT22;19361;51.598;7.650;2023-12-14T18:12:04;8.60;70.70
33007;DHT22;19361;51.598;7.650;2023-12-14T18:17:05;8.60;70.80
33007;DHT22;19361;51.598;7.650;2023-12-14T18:22:06;8.60;70.80
33007;DHT22;19361;51.598;7.650;2023-12-14T18:27:06;8.60;70.70
33007;DHT22;19361;51.598;7.650;2023-12-14T18:32:07;8.60;70.80
33007;DHT22;19361;51.598;7.650;2023-12-14T18:37:08;8.60;70.90
33007;DHT22;19361;51.598;7.650;2023-12-14T18:42:13;8.60;71.00
33007;DHT22;19361;51.598;7.650;2023-12-14T18:47:14;8.60;71.00
33007;DHT22;19361;51.598;7.650;2023-12-14T18:52:15;8.60;71.10
33007;DHT22;19361;51.598;7.650;2023-12-14T18:57:16;8.60;71.10
33007;DHT22;19361;51.598;7.650;2023-12-14T19:02:17;8.50;70.90
33007;DHT22;19361;51.598;7.650;2023-12-14T19:07:18;8.50;70.80
33007;DHT22;19361;51.598;7.650;2023-12-14T19:12:18;8.50;70.90
33007;DHT22;19361;51.598;7.650;2023-12-14T19:17:19;8.40;71.00
33007;DHT22;19361;51.598;7.650;2023-12-14T19:22:20;8.40;71.10
33007;DHT22;19361;51.598;7.650;2023-12-14T19:27:21;8.40;71.30
33007;DHT22;19361;51.598;7.650;2023-12-14T19:32:22;8.30;71.20
33007;DHT22;19361;51.598;7.650;2023-12-14T19:37:23;8.30;71.10
33007;DHT22;19361;51.598;7.650;2023-12-14T19:42:24;8.20;71.00
33007;DHT22;19361;51.598;7.650;2023-12-14T19:47:24;8.10;71.40
33007;DHT22;19361;51.598;7.650;2023-12-14T19:52:27;8.10;71.00
33007;DHT22;19361;51.598;7.650;2023-12-14T19:57:28;8.00;70.90
33007;DHT22;19361;51.598;7.650;2023-12-14T20:02:30;7.90;71.00
33007;DHT22;19361;51.598;7.650;2023-12-14T20:07:31;7.80;70.90
33007;DHT22;19361;51.598;7.650;2023-12-14T20:12:31;7.70;70.90
33007;DHT22;19361;51.598;7.650;2023-12-14T20:17:32;7.60;70.80
33007;DHT22;19361;51.598;7.650;2023-12-14T20:22:33;7.50;70.90
33007;DHT22;19361;51.598;7.650;2023-12-14T20:27:36;7.40;71.00
33007;DHT22;19361;51.598;7.650;2023-12-14T20:32:40;7.30;70.90
33007;DHT22;19361;51.598;7.650;2023-12-14T20:37:41;7.20;71.10
33007;DHT22;19361;51.598;7.650;2023-12-14T20:42:41;7.20;71.30
33007;DHT22;19361;51.598;7.650;2023-12-14T20:47:42;7.10;71.50
33007;DHT22;19361;51.598;7.650;2023-12-14T20:52:43;7.10;71.80
33007;DHT22;19361;51.598;7.650;2023-12-14T20:57:43;7.10;72.00
33007;DHT22;19361;51.598;7.650;2023-12-14T21:02:44;7.10;72.20
33007;DHT22;19361;51.598;7.650;2023-12-14T21:07:45;7.10;72.40
33007;DHT22;19361;51.598;7.650;2023-12-14T21:12:46;7.20;72.70
33007;DHT22;19361;51.598;7.650;2023-12-14T21:17:46;7.20;72.80
33007;DHT22;19361;51.598;7.650;2023-12-14T21:22:47;7.30;72.70
33007;DHT22;19361;51.598;7.650;2023-12-14T21:27:48;7.40;72.80
33007;DHT22;19361;51.598;7.650;2023-12-14T21:32:49;7.40;72.80
33007;DHT22;19361;51.598;7.650;2023-12-14T21:37:50;7.40;72.80
33007;DHT22;19361;51.598;7.650;2023-12-14T21:42:50;7.40;72.70
33007;DHT22;19361;51.598;7.650;2023-12-14T21:47:51;7.50;72.80
33007;DHT22;19361;51.598;7.650;2023-12-14T21:52:52;7.50;72.80
33007;DHT22;19361;51.598;7.650;2023-12-14T21:57:52;7.50;72.80
33007;DHT22;19361;51.598;7.650;2023-12-14T22:02:53;7.50;72.80
33007;DHT22;19361;51.598;7.650;2023-12-14T22:07:54;7.50;73.00
33007;DHT22;19361;51.598;7.650;2023-12-14T22:12:54;7.50;73.00
33007;DHT22;19361;51.598;7.650;2023-12-14T22:17:55;7.60;73.10
33007;DHT22;19361;51.598;7.650;2023-12-14T22:22:56;7.60;73.10
33007;DHT22;19361;51.598;7.650;2023-12-14T22:27:56;7.60;73.20
33007;DHT22;19361;51.598;7.650;2023-12-14T22:32:57;7.60;73.30
33007;DHT22;19361;51.598;7.650;2023-12-14T22:37:58;7.70;73.20
33007;DHT22;19361;51.598;7.650;2023-12-14T22:42:58;7.70;73.10
33007;DHT22;19361;51.598;7.650;2023-12-14T22:47:59;7.70;73.00
33007;DHT22;19361;51.598;7.650;2023-12-14T22:53:00;7.70;73.00
33007;DHT22;19361;51.598;7.650;2023-12-14T22:58:00;7.70;73.00
33007;DHT22;19361;51.598;7.650;2023-12-14T23:03:01;7.70;73.10
33007;DHT22;19361;51.598;7.650;2023-12-14T23:08:02;7.70;73.10
33007;DHT22;19361;51.598;7.650;2023-12-14T23:13:02;7.80;73.20
33007;DHT22;19361;51.598;7.650;2023-12-14T23:18:03;7.80;73.20
33007;DHT22;19361;51.598;7.650;2023-12-14T23:23:04;7.80;73.70
33007;DHT22;19361;51.598;7.650;2023-12-14T23:28:04;7.80;73.20
33007;DHT22;19361;51.598;7.650;2023-12-14T23:33:06;7.90;73.30
33007;DHT22;19361;51.598;7.650;2023-12-14T23:38:07;7.90;73.20
33007;DHT22;19361;51.598;7.650;2023-12-14T23:43:08;7.90;73.10
33007;DHT22;19361;51.598;7.650;2023-12-14T23:48:08;7.90;73.10
33007;DHT22;19361;51.598;7.650;2023-12-14T23:53:09;7.90;73.10
33007;DHT22;19361;51.598;7.650;2023-12-14T23:58:10;7.90;73.10
